createdAt,value
2019-03-26T00:04:58.560Z,19.22
2019-03-26T00:10:06.369Z,17.54
2019-03-26T00:15:13.577Z,19.96
2019-03-26T00:25:24.582Z,15.84
2019-03-26T00:35:32.736Z,14.89
2019-03-26T00:40:54.238Z,16.27
2019-03-26T00:45:54.244Z,17.99
2019-03-26T00:50:42.677Z,16.92
2019-03-26T00:56:03.634Z,17.79
2019-03-26T01:01:04.888Z,17.24
2019-03-26T01:06:04.945Z,12.65
2019-03-26T01:10:52.125Z,15.35
2019-03-26T01:21:01.408Z,15.23
2019-03-26T01:26:08.826Z,13.96
2019-03-26T01:31:29.901Z,12.95
2019-03-26T01:36:18.153Z,16.23
2019-03-26T01:41:25.365Z,11.26
2019-03-26T01:46:33.463Z,15.67
2019-03-26T01:51:41.817Z,12.86
2019-03-26T01:57:01.796Z,16.04
2019-03-26T02:01:50.082Z,13.70
2019-03-26T02:06:57.326Z,17.08
2019-03-26T02:12:04.569Z,13.82
2019-03-26T02:17:25.674Z,12.06
2019-03-26T02:22:12.924Z,13.21
2019-03-26T02:27:19.991Z,15.27
2019-03-26T02:32:28.430Z,14.73
2019-03-26T02:37:35.668Z,12.62
2019-03-26T02:42:43.012Z,14.55
2019-03-26T02:47:51.126Z,11.46
2019-03-26T02:52:59.223Z,17.57
2019-03-26T02:58:07.455Z,12.55
2019-03-26T03:03:14.645Z,12.29
2019-03-26T03:08:35.621Z,15.76
2019-03-26T03:13:23.779Z,12.95
2019-03-26T03:18:31.949Z,12.25
2019-03-26T03:23:53.185Z,14.89
2019-03-26T03:28:40.371Z,12.41
2019-03-26T03:33:49.074Z,12.15
2019-03-26T03:38:58.261Z,9.78
2019-03-26T03:44:06.529Z,12.59
2019-03-26T03:49:27.527Z,11.27
2019-03-26T03:54:28.951Z,12.37
2019-03-26T03:59:17.036Z,11.63
2019-03-26T04:04:37.222Z,11.42
2019-03-26T04:09:38.333Z,15.39
2019-03-26T04:14:25.602Z,10.88
2019-03-26T04:19:33.973Z,16.31
2019-03-26T04:29:48.966Z,13.47
2019-03-26T04:34:57.329Z,17.06
2019-03-26T04:40:04.501Z,13.73
2019-03-26T04:45:25.899Z,14.91
2019-03-26T04:50:13.127Z,14.64
2019-03-26T04:55:20.513Z,12.03
2019-03-26T05:00:28.627Z,9.85
2019-03-26T05:05:36.861Z,11.12
2019-03-26T05:10:44.916Z,10.49
2019-03-26T05:15:53.418Z,13.43
2019-03-26T05:21:01.525Z,10.00
2019-03-26T05:26:09.810Z,11.27
2019-03-26T05:31:16.987Z,11.48
2019-03-26T05:36:25.357Z,11.92
2019-03-26T05:41:32.449Z,13.72
2019-03-26T05:46:40.755Z,17.79
2019-03-26T05:51:48.811Z,15.25
2019-03-26T05:56:57.173Z,13.80
2019-03-26T06:02:14.172Z,14.51
2019-03-26T06:07:12.094Z,11.89
2019-03-26T06:12:34.191Z,15.42
2019-03-26T06:17:34.512Z,17.71
2019-03-26T06:22:21.866Z,16.89
2019-03-26T06:32:30.987Z,16.23
2019-03-26T06:37:51.315Z,18.06
2019-03-26T06:42:39.282Z,14.03
2019-03-26T06:47:47.830Z,28.11
2019-03-26T06:53:07.808Z,27.21
2019-03-26T06:57:56.683Z,26.38
2019-03-26T07:03:04.870Z,30.28
2019-03-26T07:08:12.199Z,30.27
2019-03-26T07:13:20.161Z,27.12
2019-03-26T07:18:41.460Z,30.12
2019-03-26T07:23:28.556Z,28.87
2019-03-26T07:28:37.384Z,31.50
2019-03-26T07:33:44.621Z,28.37
2019-03-26T07:39:04.720Z,37.14
2019-03-26T07:44:06.007Z,34.03
2019-03-26T07:49:06.450Z,31.88
2019-03-26T07:54:06.472Z,31.43
2019-03-26T07:58:57.208Z,28.25
2019-03-26T08:09:06.859Z,27.28
2019-03-26T08:14:14.117Z,28.12
2019-03-26T08:19:34.108Z,24.69
2019-03-26T08:24:21.761Z,22.80
2019-03-26T08:29:29.315Z,24.59
2019-03-26T08:34:36.585Z,24.85
2019-03-26T08:39:56.949Z,22.51
2019-03-26T08:44:56.959Z,20.04
2019-03-26T08:49:58.057Z,24.54
2019-03-26T08:59:47.114Z,21.32
2019-03-26T09:04:54.360Z,14.37
2019-03-26T09:10:14.668Z,13.35
2019-03-26T09:15:14.839Z,14.97
2019-03-26T09:20:02.475Z,14.72
2019-03-26T09:25:22.743Z,11.51
2019-03-26T09:30:10.450Z,13.50
2019-03-26T09:35:17.707Z,9.27
2019-03-26T09:40:26.125Z,13.24
2019-03-26T09:45:46.355Z,11.97
2019-03-26T09:50:33.985Z,11.64
2019-03-26T09:55:41.295Z,13.61
2019-03-26T10:00:48.843Z,15.14
2019-03-26T10:05:55.822Z,15.09
2019-03-26T10:11:17.100Z,10.93
2019-03-26T10:16:05.313Z,17.77
2019-03-26T10:21:25.746Z,12.62
2019-03-26T10:26:25.892Z,14.92
2019-03-26T10:31:13.283Z,11.44
2019-03-26T10:36:34.446Z,13.29
2019-03-26T10:41:21.890Z,12.27
2019-03-26T10:46:44.497Z,9.71
2019-03-26T10:51:42.155Z,14.76
2019-03-26T10:56:32.496Z,14.96
2019-03-26T11:01:37.645Z,12.14
2019-03-26T11:06:45.935Z,11.29
2019-03-26T11:11:53.282Z,11.73
2019-03-26T11:17:14.251Z,11.22
2019-03-26T11:22:15.360Z,11.43
2019-03-26T11:27:16.297Z,9.04
2019-03-26T11:32:04.728Z,8.74
2019-03-26T11:37:14.264Z,8.73
2019-03-26T11:42:22.242Z,8.69
2019-03-26T11:47:29.701Z,6.57
2019-03-26T11:52:51.050Z,10.17
2019-03-26T11:57:38.799Z,6.88
2019-03-26T12:02:59.313Z,8.80
2019-03-26T12:08:00.611Z,8.98
2019-03-26T12:12:48.312Z,10.25
2019-03-26T12:17:56.342Z,9.35
2019-03-26T12:23:16.597Z,6.86
2019-03-26T12:28:03.887Z,8.31
2019-03-26T12:33:11.366Z,6.16
2019-03-26T12:38:19.792Z,7.71
2019-03-26T12:43:27.202Z,7.30
2019-03-26T12:48:34.536Z,7.70
2019-03-26T12:53:41.968Z,7.02
2019-03-26T12:59:03.066Z,6.77
2019-03-26T13:03:50.793Z,4.98
2019-03-26T13:14:00.220Z,9.26
2019-03-26T13:19:20.318Z,7.12
2019-03-26T13:24:24.077Z,5.37
2019-03-26T13:29:11.209Z,5.27
2019-03-26T13:34:33.471Z,4.87
2019-03-26T13:39:21.851Z,9.53
2019-03-26T13:44:29.167Z,4.83
2019-03-26T13:49:49.218Z,7.17
2019-03-26T13:54:50.658Z,7.71
2019-03-26T13:59:37.805Z,7.78
2019-03-26T14:04:40.095Z,4.88
2019-03-26T14:10:00.461Z,6.00
2019-03-26T14:15:53.707Z,7.16
2019-03-26T14:21:01.087Z,7.54
2019-03-26T14:26:23.276Z,8.54
2019-03-26T14:31:10.698Z,5.78
2019-03-26T14:36:18.049Z,8.26
2019-03-26T16:40:37.635Z,4.79
2019-03-26T16:45:25.010Z,4.44
2019-03-26T16:50:45.104Z,6.59
2019-03-26T16:55:46.197Z,6.45
2019-03-26T17:00:47.308Z,6.41
2019-03-26T17:05:47.493Z,5.26
2019-03-26T17:10:48.696Z,6.81
2019-03-26T17:15:34.845Z,5.12
2019-03-26T17:20:42.929Z,5.40
2019-03-26T17:25:51.225Z,3.83
2019-03-26T17:30:59.360Z,3.88
2019-03-26T17:36:07.666Z,3.84
2019-03-26T17:41:28.769Z,6.09
2019-03-26T17:46:16.069Z,4.20
2019-03-26T17:51:24.431Z,4.29
2019-03-26T17:56:31.886Z,5.12
2019-03-26T18:01:54.409Z,6.02
2019-03-26T18:06:39.620Z,4.29
2019-03-26T18:11:59.821Z,4.02
2019-03-26T18:17:00.172Z,4.18
2019-03-26T18:22:00.355Z,4.37
2019-03-26T18:32:01.578Z,3.88
2019-03-26T18:36:49.182Z,4.85
2019-03-26T18:41:56.503Z,3.06
2019-03-26T18:47:04.717Z,2.84
2019-03-26T18:52:11.848Z,3.43
2019-03-26T19:02:20.951Z,3.59
2019-03-26T19:07:28.543Z,6.17
2019-03-26T19:12:56.756Z,4.67
2019-03-26T19:17:49.455Z,4.78
2019-03-26T19:22:39.247Z,4.14
2019-03-26T19:27:59.492Z,3.20
2019-03-26T19:32:59.463Z,3.97
2019-03-26T19:42:51.482Z,4.07
2019-03-26T19:53:15.330Z,5.75
2019-03-26T19:58:03.818Z,6.64
2019-03-26T20:03:24.174Z,6.02
2019-03-26T20:08:11.356Z,3.57
2019-03-26T20:13:32.524Z,5.29
2019-03-26T20:18:20.225Z,4.75
2019-03-26T20:23:40.191Z,5.32
2019-03-26T20:28:28.689Z,5.51
2019-03-26T20:33:36.913Z,6.47
2019-03-26T20:38:44.005Z,8.72
2019-03-26T20:43:52.264Z,6.06
2019-03-26T20:48:59.641Z,6.50
2019-03-26T20:54:06.726Z,6.89
2019-03-26T20:59:15.136Z,6.91
2019-03-26T21:04:22.419Z,6.24
2019-03-26T21:09:29.865Z,5.96
2019-03-26T21:14:49.943Z,6.52
2019-03-26T21:19:50.223Z,7.89
2019-03-26T21:24:37.333Z,7.76
2019-03-26T21:30:10.009Z,5.10
2019-03-26T21:34:45.957Z,6.85
2019-03-26T21:39:53.251Z,5.98
2019-03-26T21:45:00.477Z,6.53
2019-03-26T21:50:07.889Z,5.73
2019-03-26T21:55:16.095Z,11.42
2019-03-26T22:00:23.342Z,5.37
2019-03-26T22:05:31.608Z,5.94
2019-03-26T22:10:39.809Z,8.89
2019-03-26T22:21:00.771Z,6.46
2019-03-26T22:26:01.752Z,5.01
2019-03-26T22:30:50.071Z,5.90
2019-03-26T22:35:57.236Z,4.91
2019-03-26T22:46:22.125Z,6.70
2019-03-26T22:51:22.472Z,7.62
2019-03-26T22:56:22.664Z,4.58
2019-03-26T23:01:09.845Z,5.34
2019-03-26T23:06:18.084Z,5.92
2019-03-26T23:11:25.564Z,8.43
2019-03-26T23:16:32.857Z,5.17
2019-03-26T23:21:41.243Z,5.95
2019-03-26T23:26:49.463Z,7.37
2019-03-26T23:31:56.882Z,5.25
2019-03-26T23:37:03.984Z,6.83
2019-03-26T23:42:25.152Z,3.56
2019-03-26T23:47:26.269Z,7.17
2019-03-26T23:52:13.625Z,6.06
2019-03-26T23:57:22.095Z,4.50
